Time;durP1;ratioP1;P1;durP2;ratioP2;P2;SDS_P1;SDS_P2;PMS_P1;PMS_P2;Temp;Humidity;BMP_temperature;BMP_pressure;BME280_temperature;BME280_humidity;BME280_pressure;Samples;Min_cycle;Max_cycle;Signal;HPM_P1;HPM_P2
2021/07/05 00:01:01;;;;;;;2.07;1.20;;;17.90;99.90;;;;;;5061506;28;20188;-59
2021/07/05 00:03:27;;;;;;;1.83;1.50;;;18.00;99.90;;;;;;5056798;28;20178;-59
2021/07/05 00:05:53;;;;;;;2.07;1.20;;;18.00;99.90;;;;;;5057714;28;20181;-59
2021/07/05 00:08:18;;;;;;;1.30;1.20;;;18.00;99.90;;;;;;5064401;28;20204;-59
2021/07/05 00:10:44;;;;;;;1.40;1.10;;;17.90;99.90;;;;;;5061880;28;20280;-59
2021/07/05 00:13:09;;;;;;;1.77;1.00;;;17.90;99.90;;;;;;5062899;28;20201;-59
2021/07/05 00:15:35;;;;;;;1.40;1.20;;;18.00;99.90;;;;;;5058998;28;20243;-59
2021/07/05 00:18:06;;;;;;;1.30;1.20;;;17.90;99.90;;;;;;5065041;28;20180;-59
2021/07/05 00:20:35;;;;;;;1.20;1.10;;;17.90;99.90;;;;;;5064728;28;20192;-58
2021/07/05 00:23:01;;;;;;;1.40;1.30;;;17.90;99.90;;;;;;5055805;28;20265;-59
2021/07/05 00:25:26;;;;;;;1.10;1.00;;;17.90;99.90;;;;;;5061527;28;20329;-59
2021/07/05 00:27:52;;;;;;;1.33;1.23;;;17.90;99.90;;;;;;5060850;28;20270;-59
2021/07/05 00:30:18;;;;;;;1.80;1.37;;;17.90;99.90;;;;;;5056692;28;20189;-59
2021/07/05 00:32:45;;;;;;;2.35;1.30;;;17.90;99.90;;;;;;5056988;28;20967;-59
2021/07/05 00:35:12;;;;;;;2.00;1.35;;;17.90;99.90;;;;;;5062838;28;20278;-59
2021/07/05 00:37:38;;;;;;;1.13;1.02;;;17.90;99.90;;;;;;5058434;28;20186;-59
2021/07/05 00:40:07;;;;;;;2.13;1.27;;;18.00;99.90;;;;;;5064697;28;20333;-58
2021/07/05 00:42:33;;;;;;;2.55;1.27;;;18.00;99.90;;;;;;5059892;28;20524;-59
2021/07/05 00:44:59;;;;;;;1.38;1.10;;;18.00;99.90;;;;;;5054634;28;20182;-59
2021/07/05 00:47:24;;;;;;;1.37;1.27;;;18.00;99.90;;;;;;5054961;28;20192;-59
2021/07/05 00:49:50;;;;;;;2.03;1.83;;;18.10;99.90;;;;;;5058482;28;20532;-59
2021/07/05 00:52:17;;;;;;;1.60;1.50;;;18.10;99.90;;;;;;5060042;28;20232;-59
2021/07/05 00:54:43;;;;;;;1.10;1.00;;;18.10;99.90;;;;;;5058888;28;20189;-58
2021/07/05 00:57:23;;;;;;;2.53;1.40;;;18.10;99.90;;;;;;5060564;28;20173;-58
2021/07/05 00:59:54;;;;;;;1.50;1.40;;;18.10;99.90;;;;;;5062715;28;20193;-58
2021/07/05 01:02:21;;;;;;;1.80;1.20;;;18.30;99.90;;;;;;5057431;28;20180;-59
2021/07/05 01:04:48;;;;;;;2.65;1.40;;;18.20;99.90;;;;;;5070293;28;20185;-59
2021/07/05 01:07:14;;;;;;;1.42;1.33;;;18.20;99.90;;;;;;5058034;28;20184;-59
2021/07/05 01:09:41;;;;;;;1.65;1.08;;;18.10;99.90;;;;;;5057599;28;20312;-58
2021/07/05 01:12:08;;;;;;;1.23;1.13;;;18.10;99.90;;;;;;5066000;28;20178;-59
2021/07/05 01:14:34;;;;;;;1.13;1.02;;;18.20;99.90;;;;;;5053831;28;20238;-58
2021/07/05 01:17:00;;;;;;;1.33;0.80;;;18.20;99.90;;;;;;5067573;28;20172;-59
2021/07/05 01:19:26;;;;;;;1.38;1.20;;;18.10;99.90;;;;;;5069014;28;20196;-59
2021/07/05 01:21:54;;;;;;;10.27;1.50;;;18.10;99.90;;;;;;5062534;28;20581;-59
2021/07/05 01:24:20;;;;;;;1.50;1.15;;;18.20;99.90;;;;;;5057596;28;20181;-59
2021/07/05 01:26:46;;;;;;;1.15;1.05;;;18.00;99.90;;;;;;5070136;28;20192;-59
2021/07/05 01:29:11;;;;;;;1.50;1.13;;;18.10;99.90;;;;;;5065308;28;20216;-59
2021/07/05 01:31:37;;;;;;;2.20;1.17;;;18.20;99.90;;;;;;5062442;28;20192;-59
2021/07/05 01:34:04;;;;;;;2.33;1.10;;;18.10;99.90;;;;;;5065705;28;20671;-59
2021/07/05 01:36:30;;;;;;;2.55;1.25;;;18.10;99.90;;;;;;5056685;28;20204;-59
2021/07/05 01:38:55;;;;;;;1.40;1.30;;;18.10;99.90;;;;;;5068240;28;20743;-59
2021/07/05 01:41:21;;;;;;;1.27;1.00;;;18.10;99.90;;;;;;5059586;28;20443;-59
2021/07/05 01:43:48;;;;;;;3.63;1.30;;;18.10;99.90;;;;;;5069885;28;20189;-59
2021/07/05 01:46:14;;;;;;;1.40;1.30;;;18.10;99.90;;;;;;5061618;28;20268;-59
2021/07/05 01:48:40;;;;;;;2.30;1.13;;;18.10;99.90;;;;;;5064524;28;20290;-60
2021/07/05 01:51:06;;;;;;;3.13;1.30;;;18.10;99.90;;;;;;5059366;28;20432;-60
2021/07/05 01:53:32;;;;;;;1.20;1.10;;;18.10;99.90;;;;;;5063024;28;20191;-59
2021/07/05 01:56:04;;;;;;;1.30;1.20;;;18.10;99.90;;;;;;5068832;28;20200;-59
2021/07/05 01:58:30;;;;;;;1.45;1.20;;;18.10;99.90;;;;;;5060785;28;20200;-59
2021/07/05 02:00:56;;;;;;;1.80;1.50;;;18.20;99.90;;;;;;5061705;28;20650;-59
2021/07/05 02:03:22;;;;;;;2.13;1.10;;;18.20;99.90;;;;;;5068103;28;20431;-59
2021/07/05 02:05:48;;;;;;;1.20;1.10;;;18.30;99.90;;;;;;5061290;28;20856;-60
2021/07/05 02:08:16;;;;;;;1.42;1.20;;;18.30;99.90;;;;;;5064838;28;20812;-60
2021/07/05 02:10:43;;;;;;;1.33;1.20;;;18.30;99.90;;;;;;5060219;28;20715;-60
2021/07/05 02:13:16;;;;;;;2.53;1.30;;;18.30;99.90;;;;;;5065897;28;20307;-60
2021/07/05 02:15:42;;;;;;;1.30;1.20;;;18.20;99.90;;;;;;5069416;28;20212;-60
2021/07/05 02:18:08;;;;;;;1.90;1.20;;;18.20;99.90;;;;;;5062623;28;20197;-60
2021/07/05 02:20:34;;;;;;;2.10;1.20;;;18.20;99.90;;;;;;5058491;28;20188;-60
2021/07/05 02:23:01;;;;;;;1.90;1.80;;;18.20;99.90;;;;;;5062191;28;20183;-59
2021/07/05 02:25:29;;;;;;;1.33;1.00;;;18.30;99.90;;;;;;5055028;28;20186;-60
2021/07/05 02:27:57;;;;;;;1.30;1.20;;;18.20;99.90;;;;;;5064344;28;20186;-60
2021/07/05 02:30:24;;;;;;;1.20;1.10;;;18.20;99.90;;;;;;5059252;28;20634;-60
2021/07/05 02:32:50;;;;;;;1.30;1.20;;;18.20;99.90;;;;;;5069378;28;20661;-60
2021/07/05 02:35:21;;;;;;;1.40;1.30;;;18.20;99.90;;;;;;5058658;28;20208;-60
2021/07/05 02:37:48;;;;;;;1.50;1.38;;;18.20;99.90;;;;;;5056846;28;20647;-60
2021/07/05 02:40:17;;;;;;;1.20;1.10;;;18.10;99.90;;;;;;5066670;28;20180;-59
2021/07/05 02:42:43;;;;;;;2.08;1.40;;;18.20;99.90;;;;;;5062849;28;20276;-59
2021/07/05 02:45:16;;;;;;;1.27;1.17;;;18.10;99.90;;;;;;5066318;28;20230;-59
2021/07/05 02:47:42;;;;;;;2.75;1.42;;;18.10;99.90;;;;;;5077044;28;20188;-59
2021/07/05 02:50:09;;;;;;;3.15;1.40;;;18.10;99.90;;;;;;5062688;28;20932;-59
2021/07/05 02:52:35;;;;;;;1.45;1.35;;;18.10;99.90;;;;;;5061028;28;20273;-60
2021/07/05 02:55:01;;;;;;;1.40;1.30;;;18.10;99.90;;;;;;5062768;28;20290;-59
2021/07/05 02:57:29;;;;;;;1.57;1.33;;;18.10;99.90;;;;;;5064816;28;20480;-59
2021/07/05 03:00:07;;;;;;;1.20;1.10;;;18.10;99.90;;;;;;5063486;28;20246;-60
2021/07/05 03:02:33;;;;;;;1.55;1.20;;;18.10;99.90;;;;;;5058880;28;20187;-60
2021/07/05 03:04:59;;;;;;;2.45;1.60;;;18.10;99.90;;;;;;5066228;28;20557;-59
2021/07/05 03:07:25;;;;;;;1.20;1.10;;;18.00;99.90;;;;;;5067116;28;20189;-59
2021/07/05 03:09:51;;;;;;;3.17;1.50;;;18.10;99.90;;;;;;5060605;28;20243;-60
2021/07/05 03:12:17;;;;;;;2.27;1.53;;;18.20;99.90;;;;;;5064414;28;20216;-60
2021/07/05 03:14:42;;;;;;;1.47;1.30;;;18.20;99.90;;;;;;5064729;28;20213;-60
2021/07/05 03:17:08;;;;;;;1.43;1.33;;;18.20;99.90;;;;;;5063009;28;20182;-60
2021/07/05 03:19:34;;;;;;;1.90;1.20;;;18.20;99.90;;;;;;5065741;28;20250;-59
2021/07/05 03:21:59;;;;;;;1.30;1.20;;;18.20;99.90;;;;;;5058832;28;20250;-60
2021/07/05 03:24:25;;;;;;;1.57;1.40;;;18.30;99.90;;;;;;5062320;28;20696;-59
2021/07/05 03:26:50;;;;;;;1.60;1.50;;;18.40;99.90;;;;;;5064763;28;20629;-60
2021/07/05 03:29:16;;;;;;;2.07;1.30;;;18.20;99.90;;;;;;5062552;28;20205;-59
2021/07/05 03:31:41;;;;;;;2.07;1.63;;;18.20;99.90;;;;;;5057384;28;20182;-60
2021/07/05 03:34:07;;;;;;;2.30;1.50;;;18.30;99.90;;;;;;5063918;28;20193;-59
2021/07/05 03:36:32;;;;;;;3.20;1.20;;;18.00;99.90;;;;;;5053562;28;20287;-60
2021/07/05 03:38:58;;;;;;;1.53;1.43;;;18.30;99.90;;;;;;5060624;28;20204;-60
2021/07/05 03:41:24;;;;;;;1.73;1.20;;;18.40;99.90;;;;;;5059860;28;20182;-59
2021/07/05 03:43:50;;;;;;;2.70;1.80;;;18.30;99.90;;;;;;5067042;28;20207;-59
2021/07/05 03:46:15;;;;;;;4.57;1.27;;;18.20;99.90;;;;;;5059915;28;20732;-60
2021/07/05 03:48:41;;;;;;;1.77;1.57;;;18.20;99.90;;;;;;5057988;28;20259;-60
2021/07/05 03:51:07;;;;;;;1.67;1.50;;;18.20;99.90;;;;;;5059507;28;20234;-59
2021/07/05 03:53:33;;;;;;;1.30;1.20;;;18.20;99.90;;;;;;5066482;28;20181;-60
2021/07/05 03:55:58;;;;;;;1.97;1.30;;;18.20;99.90;;;;;;5065981;28;20496;-60
2021/07/05 03:58:24;;;;;;;1.63;1.50;;;18.20;99.90;;;;;;5061725;28;20197;-60
2021/07/05 04:00:50;;;;;;;3.50;1.80;;;18.10;99.90;;;;;;5057787;28;20264;-59
2021/07/05 04:03:16;;;;;;;2.60;1.97;;;18.10;99.90;;;;;;5055607;28;20435;-60
2021/07/05 04:05:42;;;;;;;1.50;1.40;;;18.10;99.90;;;;;;5055906;28;20181;-59
2021/07/05 04:08:08;;;;;;;1.50;1.40;;;18.10;99.90;;;;;;5065628;28;20523;-58
2021/07/05 04:10:34;;;;;;;1.97;1.60;;;18.00;99.90;;;;;;5061487;28;20594;-59
2021/07/05 04:13:04;;;;;;;2.03;1.58;;;18.00;99.90;;;;;;5058584;28;20177;-58
2021/07/05 04:15:30;;;;;;;2.42;1.83;;;18.00;99.90;;;;;;5057903;28;20760;-58
2021/07/05 04:17:56;;;;;;;2.80;2.10;;;18.20;99.90;;;;;;5049215;28;20213;-57
2021/07/05 04:20:24;;;;;;;1.83;1.70;;;18.10;99.90;;;;;;5053150;28;20182;-57
2021/07/05 04:22:50;;;;;;;3.20;2.30;;;18.20;99.90;;;;;;5050143;28;20181;-58
2021/07/05 04:25:17;;;;;;;2.50;1.60;;;18.20;99.90;;;;;;5053177;28;20188;-58
2021/07/05 04:27:44;;;;;;;4.32;2.30;;;18.10;99.90;;;;;;5056475;28;20191;-59
2021/07/05 04:30:11;;;;;;;1.70;1.58;;;18.10;99.90;;;;;;5053605;28;20188;-58
2021/07/05 04:32:37;;;;;;;3.42;1.88;;;18.10;99.90;;;;;;5051839;28;20196;-56
2021/07/05 04:35:06;;;;;;;2.00;1.33;;;18.10;99.90;;;;;;5054029;28;20220;-56
2021/07/05 04:37:32;;;;;;;2.08;1.55;;;18.10;99.90;;;;;;5059303;28;20665;-58
2021/07/05 04:39:57;;;;;;;2.47;2.10;;;18.10;99.90;;;;;;5058108;28;20289;-58
2021/07/05 04:42:23;;;;;;;4.57;2.03;;;18.00;99.90;;;;;;5059687;28;20200;-58
2021/07/05 04:44:50;;;;;;;1.73;1.63;;;18.10;99.90;;;;;;5059485;28;20273;-57
2021/07/05 04:47:16;;;;;;;2.78;1.50;;;18.10;99.90;;;;;;5053561;28;20173;-59
2021/07/05 04:49:42;;;;;;;2.27;1.87;;;18.10;99.90;;;;;;5055532;28;20198;-57
2021/07/05 04:52:08;;;;;;;1.80;1.70;;;18.00;99.90;;;;;;5056959;28;20204;-58
2021/07/05 04:54:33;;;;;;;2.03;1.83;;;18.10;99.90;;;;;;5053355;28;20205;-55
2021/07/05 04:56:59;;;;;;;2.27;2.00;;;18.20;99.90;;;;;;5056036;28;20256;-54
2021/07/05 04:59:26;;;;;;;1.73;1.60;;;18.30;99.90;;;;;;5060550;28;20264;-56
2021/07/05 05:01:52;;;;;;;1.52;1.42;;;18.40;99.90;;;;;;5058146;28;20446;-54
2021/07/05 05:04:17;;;;;;;1.50;1.40;;;18.60;99.90;;;;;;5055264;28;20182;-54
2021/07/05 05:06:44;;;;;;;1.50;1.40;;;18.60;99.90;;;;;;5059582;28;20986;-55
2021/07/05 05:09:10;;;;;;;1.40;1.30;;;18.80;99.90;;;;;;5055087;28;20207;-55
2021/07/05 05:11:36;;;;;;;1.70;1.60;;;18.80;99.90;;;;;;5056385;28;20185;-54
2021/07/05 05:14:02;;;;;;;7.07;1.73;;;18.70;99.90;;;;;;5052727;28;20181;-53
2021/07/05 05:16:28;;;;;;;1.53;1.43;;;18.90;99.90;;;;;;5063912;28;20454;-53
2021/07/05 05:18:54;;;;;;;2.17;1.70;;;19.00;99.90;;;;;;5054219;28;20581;-54
2021/07/05 05:21:19;;;;;;;1.60;1.50;;;19.00;99.90;;;;;;5065653;28;20438;-53
2021/07/05 05:23:45;;;;;;;2.40;1.70;;;19.00;99.90;;;;;;5064374;28;20192;-54
2021/07/05 05:26:11;;;;;;;2.63;1.57;;;19.00;99.90;;;;;;5064090;28;20192;-54
2021/07/05 05:28:36;;;;;;;2.20;1.33;;;19.10;99.90;;;;;;5061235;28;20244;-53
2021/07/05 05:31:03;;;;;;;1.60;1.50;;;19.20;99.90;;;;;;5054689;28;20200;-54
2021/07/05 05:33:29;;;;;;;2.08;1.40;;;19.30;99.90;;;;;;5064649;28;20436;-54
2021/07/05 05:35:54;;;;;;;1.67;1.53;;;19.30;99.90;;;;;;5060009;28;20205;-53
2021/07/05 05:38:23;;;;;;;2.93;1.70;;;19.40;99.90;;;;;;5059897;28;20469;-54
2021/07/05 05:40:49;;;;;;;1.88;1.73;;;19.50;99.90;;;;;;5070097;28;20269;-54
2021/07/05 05:43:14;;;;;;;1.70;1.20;;;19.60;99.90;;;;;;5053423;28;20268;-56
2021/07/05 05:45:40;;;;;;;1.40;1.30;;;19.70;99.90;;;;;;5052922;28;20849;-55
2021/07/05 05:48:06;;;;;;;3.10;1.60;;;19.70;99.90;;;;;;5055000;28;20197;-56
2021/07/05 05:50:32;;;;;;;1.50;1.40;;;19.70;99.90;;;;;;5054819;28;20177;-55
2021/07/05 05:52:57;;;;;;;1.77;1.57;;;19.70;99.90;;;;;;5056887;28;20181;-55
2021/07/05 05:55:23;;;;;;;1.63;1.30;;;19.70;99.90;;;;;;5053471;28;20198;-55
2021/07/05 05:57:50;;;;;;;2.30;1.30;;;19.60;99.90;;;;;;5050025;28;20228;-55
2021/07/05 06:00:26;;;;;;;3.67;1.90;;;19.60;99.90;;;;;;5053427;28;20261;-55
2021/07/05 06:02:53;;;;;;;1.58;1.23;;;19.70;99.90;;;;;;5060862;28;20193;-57
2021/07/05 06:05:19;;;;;;;3.58;1.50;;;19.70;99.90;;;;;;5059576;28;20181;-57
2021/07/05 06:07:51;;;;;;;5.33;2.40;;;19.70;99.90;;;;;;5055344;28;20177;-57
2021/07/05 06:10:22;;;;;;;3.28;1.65;;;19.60;99.90;;;;;;5055308;28;20440;-57
2021/07/05 06:12:48;;;;;;;1.92;1.65;;;19.60;99.90;;;;;;5067068;28;20181;-57
2021/07/05 06:15:15;;;;;;;2.00;1.80;;;19.60;99.90;;;;;;5057845;28;20232;-57
2021/07/05 06:17:40;;;;;;;3.50;1.85;;;19.60;99.90;;;;;;5056056;28;20601;-56
2021/07/05 06:20:07;;;;;;;2.07;1.37;;;19.50;99.90;;;;;;5054631;28;20316;-56
2021/07/05 06:22:40;;;;;;;1.67;1.48;;;19.50;99.90;;;;;;5058863;28;20188;-56
2021/07/05 06:25:06;;;;;;;1.60;1.50;;;19.50;99.90;;;;;;5057125;28;20264;-56
2021/07/05 06:27:31;;;;;;;2.55;1.40;;;19.50;99.90;;;;;;5057095;28;20177;-56
2021/07/05 06:29:57;;;;;;;1.57;1.40;;;19.50;99.90;;;;;;5060295;28;20227;-56
2021/07/05 06:32:23;;;;;;;1.60;1.50;;;19.50;99.90;;;;;;5060001;28;20818;-56
2021/07/05 06:34:48;;;;;;;1.63;1.53;;;19.50;99.90;;;;;;5054845;28;20246;-56
2021/07/05 06:37:14;;;;;;;2.70;1.43;;;19.60;99.90;;;;;;5059870;28;20188;-56
2021/07/05 06:39:40;;;;;;;2.80;2.30;;;19.50;99.90;;;;;;5059675;28;20310;-57
2021/07/05 06:42:05;;;;;;;5.53;3.70;;;19.50;99.90;;;;;;5062621;28;20768;-56
2021/07/05 06:44:32;;;;;;;1.90;1.50;;;19.50;99.90;;;;;;5055967;28;20280;-57
2021/07/05 06:46:58;;;;;;;2.20;1.55;;;19.60;99.90;;;;;;5061031;28;20452;-56
2021/07/05 06:49:23;;;;;;;1.63;1.40;;;19.60;99.90;;;;;;5062053;28;20216;-56
2021/07/05 06:51:49;;;;;;;2.20;1.47;;;19.60;99.90;;;;;;5062066;28;20185;-55
2021/07/05 06:54:15;;;;;;;1.73;1.63;;;19.70;99.90;;;;;;5052331;28;20195;-58
2021/07/05 06:56:41;;;;;;;2.95;1.88;;;19.80;99.90;;;;;;5052643;28;20556;-56
2021/07/05 06:59:07;;;;;;;1.70;1.60;;;19.80;99.90;;;;;;5058927;28;20228;-56
2021/07/05 07:01:36;;;;;;;3.50;1.90;;;19.90;99.90;;;;;;5055936;28;20177;-57
2021/07/05 07:04:02;;;;;;;1.80;1.70;;;19.90;99.90;;;;;;5057160;28;20320;-58
2021/07/05 07:06:28;;;;;;;1.30;1.20;;;20.00;99.90;;;;;;5054288;28;20276;-58
2021/07/05 07:08:53;;;;;;;2.13;1.50;;;20.10;99.90;;;;;;5052426;28;20205;-56
2021/07/05 07:11:20;;;;;;;2.00;1.40;;;20.00;99.90;;;;;;5065367;28;20188;-57
2021/07/05 07:13:46;;;;;;;2.85;1.10;;;20.00;99.90;;;;;;5059516;28;20189;-57
2021/07/05 07:16:14;;;;;;;1.42;1.33;;;20.10;99.90;;;;;;5062421;28;20204;-57
2021/07/05 07:19:07;;;;;;;1.13;1.02;;;20.20;99.90;;;;;;5059876;28;20590;-56
2021/07/05 07:21:33;;;;;;;2.17;1.40;;;20.20;99.90;;;;;;5059356;28;20189;-58
2021/07/05 07:23:59;;;;;;;1.30;1.17;;;20.20;99.90;;;;;;5055690;28;20181;-57
2021/07/05 07:26:24;;;;;;;1.50;1.40;;;20.20;99.90;;;;;;5049531;28;20276;-57
2021/07/05 07:28:52;;;;;;;1.90;1.50;;;20.20;99.90;;;;;;5062686;28;20200;-57
2021/07/05 07:31:21;;;;;;;1.40;1.30;;;20.20;99.90;;;;;;5063742;28;20181;-57
2021/07/05 07:33:47;;;;;;;1.90;1.30;;;20.30;99.90;;;;;;5055179;28;20293;-56
2021/07/05 07:36:13;;;;;;;1.67;1.40;;;20.30;99.90;;;;;;5055523;28;20280;-57
2021/07/05 07:38:45;;;;;;;2.17;1.70;;;20.30;99.90;;;;;;5059341;28;20456;-57
2021/07/05 07:41:11;;;;;;;1.92;1.83;;;20.30;99.90;;;;;;5054384;28;20276;-56
2021/07/05 07:43:37;;;;;;;1.43;1.13;;;20.20;99.90;;;;;;5056743;28;20272;-56
2021/07/05 07:46:03;;;;;;;2.30;1.70;;;20.40;99.90;;;;;;5057160;28;20443;-54
2021/07/05 07:48:29;;;;;;;1.50;1.40;;;20.60;99.90;;;;;;5062012;28;20210;-56
2021/07/05 07:50:54;;;;;;;1.10;1.00;;;20.90;99.90;;;;;;5057980;28;20642;-56
2021/07/05 07:53:20;;;;;;;2.03;1.30;;;21.00;99.90;;;;;;5063722;28;20439;-56
2021/07/05 07:55:46;;;;;;;1.50;1.37;;;21.00;99.90;;;;;;5054596;28;20235;-57
2021/07/05 07:58:11;;;;;;;2.13;1.40;;;20.80;99.90;;;;;;5059481;28;20684;-56
2021/07/05 08:00:37;;;;;;;1.47;1.33;;;20.90;99.90;;;;;;5061965;28;20618;-56
2021/07/05 08:03:02;;;;;;;1.40;1.30;;;20.90;99.90;;;;;;5058075;28;20188;-57
2021/07/05 08:05:28;;;;;;;1.80;1.47;;;20.90;99.90;;;;;;5058455;28;20188;-57
2021/07/05 08:07:54;;;;;;;1.57;1.17;;;21.00;99.90;;;;;;5063122;28;20183;-56
2021/07/05 08:10:19;;;;;;;1.67;1.20;;;21.10;99.90;;;;;;5060849;28;20189;-58
2021/07/05 08:12:46;;;;;;;1.40;1.30;;;21.00;99.90;;;;;;5066604;28;20181;-58
2021/07/05 08:15:13;;;;;;;2.35;1.65;;;21.00;99.90;;;;;;5061970;28;20258;-57
2021/07/05 08:17:42;;;;;;;2.75;2.10;;;20.90;99.90;;;;;;5067065;28;20722;-56
2021/07/05 08:20:08;;;;;;;2.20;1.25;;;20.90;99.90;;;;;;5063727;28;20251;-57
2021/07/05 08:22:35;;;;;;;2.60;1.60;;;20.90;99.90;;;;;;5061001;28;20181;-57
2021/07/05 08:25:04;;;;;;;1.83;1.17;;;20.90;99.90;;;;;;5057486;28;20570;-54
2021/07/05 08:27:31;;;;;;;1.10;1.00;;;20.80;99.90;;;;;;5060089;28;20180;-54
2021/07/05 08:29:57;;;;;;;2.00;1.20;;;20.80;99.90;;;;;;5062830;28;20212;-57
2021/07/05 08:32:22;;;;;;;2.80;1.80;;;20.80;99.90;;;;;;5061684;28;20177;-55
2021/07/05 08:34:48;;;;;;;1.40;1.30;;;20.70;99.90;;;;;;5060249;28;20642;-59
2021/07/05 08:37:14;;;;;;;3.20;1.20;;;20.80;99.90;;;;;;5067970;28;20219;-55
2021/07/05 08:39:39;;;;;;;3.50;1.20;;;20.70;99.90;;;;;;5062102;28;20232;-58
2021/07/05 08:42:06;;;;;;;2.30;1.50;;;20.70;99.90;;;;;;5062308;28;20181;-54
2021/07/05 08:44:32;;;;;;;1.70;1.60;;;20.80;99.90;;;;;;5052244;28;20659;-56
2021/07/05 08:47:00;;;;;;;1.73;1.50;;;20.60;99.90;;;;;;5066090;28;20672;-56
2021/07/05 08:49:26;;;;;;;2.85;1.60;;;20.70;99.90;;;;;;5065554;28;20208;-56
2021/07/05 08:51:55;;;;;;;1.80;1.37;;;20.60;99.90;;;;;;5058337;28;20173;-55
2021/07/05 08:54:22;;;;;;;1.77;1.45;;;20.70;99.90;;;;;;5064112;28;20273;-56
2021/07/05 08:56:48;;;;;;;1.42;1.33;;;20.60;99.90;;;;;;5064586;28;20240;-56
2021/07/05 08:59:16;;;;;;;2.05;1.40;;;20.70;99.90;;;;;;5062857;28;20220;-54
2021/07/05 09:01:41;;;;;;;2.20;1.40;;;20.30;99.90;;;;;;5053076;28;20650;-56
2021/07/05 09:04:11;;;;;;;2.83;1.57;;;20.20;99.90;;;;;;5059936;28;20196;-56
2021/07/05 09:06:38;;;;;;;1.85;1.75;;;20.30;99.90;;;;;;5070248;28;20192;-56
2021/07/05 09:09:08;;;;;;;1.75;1.60;;;20.40;99.90;;;;;;5059973;28;20208;-55
2021/07/05 09:11:45;;;;;;;2.17;1.63;;;20.40;99.90;;;;;;5065484;28;20710;-57
2021/07/05 09:14:25;;;;;;;2.05;1.85;;;20.50;99.90;;;;;;5055788;28;20185;-56
2021/07/05 09:16:53;;;;;;;1.70;1.60;;;20.70;99.90;;;;;;5058280;28;20266;-56
2021/07/05 09:19:18;;;;;;;1.98;1.88;;;20.80;99.90;;;;;;5064007;28;20209;-57
2021/07/05 09:21:50;;;;;;;3.40;1.50;;;21.00;99.90;;;;;;5069081;28;20225;-56
2021/07/05 09:24:38;;;;;;;3.10;1.60;;;21.00;99.90;;;;;;5061647;28;20622;-57
2021/07/05 09:27:14;;;;;;;1.60;1.50;;;21.20;99.90;;;;;;5058977;28;20211;-57
2021/07/05 09:29:41;;;;;;;1.48;1.38;;;21.20;99.90;;;;;;5065426;28;20231;-57
2021/07/05 09:32:10;;;;;;;1.40;1.30;;;21.10;99.90;;;;;;5055315;28;20193;-57
2021/07/05 09:34:41;;;;;;;2.40;1.00;;;21.20;99.90;;;;;;5060582;28;20197;-57
2021/07/05 09:37:31;;;;;;;1.65;0.98;;;21.10;99.90;;;;;;5057866;28;20237;-57
2021/07/05 09:40:03;;;;;;;1.88;1.00;;;21.10;99.90;;;;;;5055699;28;20197;-55
2021/07/05 09:42:50;;;;;;;1.70;1.05;;;20.90;99.90;;;;;;5056622;28;20212;-56
2021/07/05 09:45:27;;;;;;;2.45;1.10;;;20.70;99.90;;;;;;5062560;28;20186;-56
2021/07/05 09:48:13;;;;;;;1.38;0.90;;;20.60;99.90;;;;;;5059290;28;20189;-57
2021/07/05 09:50:39;;;;;;;1.00;0.90;;;20.40;99.90;;;;;;5061274;28;20182;-56
2021/07/05 09:53:35;;;;;;;1.00;0.90;;;20.30;99.90;;;;;;5058164;28;20185;-57
2021/07/05 09:56:19;;;;;;;1.10;1.00;;;20.20;99.90;;;;;;5061561;28;20813;-58
2021/07/05 09:58:45;;;;;;;1.00;0.90;;;20.40;99.90;;;;;;5061754;28;20205;-58
2021/07/05 10:01:11;;;;;;;1.17;0.90;;;20.40;99.90;;;;;;5056984;28;20522;-57
2021/07/05 10:03:39;;;;;;;1.40;1.07;;;20.40;99.90;;;;;;5062605;28;20428;-56
2021/07/05 10:06:19;;;;;;;1.45;1.35;;;20.40;99.90;;;;;;5061689;28;20439;-57
2021/07/05 10:08:46;;;;;;;1.90;1.80;;;20.30;99.90;;;;;;5053703;28;20205;-56
2021/07/05 10:11:13;;;;;;;1.60;0.98;;;20.30;99.90;;;;;;5053294;28;20192;-57
2021/07/05 10:13:39;;;;;;;1.10;1.00;;;20.40;99.90;;;;;;5064616;28;20184;-58
2021/07/05 10:16:10;;;;;;;1.10;1.00;;;20.40;99.90;;;;;;5054782;28;20262;-58
2021/07/05 10:18:36;;;;;;;1.48;1.20;;;20.40;99.90;;;;;;5059111;28;21010;-58
2021/07/05 10:21:03;;;;;;;2.00;1.23;;;20.40;99.90;;;;;;5061568;28;20196;-56
2021/07/05 10:23:29;;;;;;;4.72;1.15;;;20.30;99.90;;;;;;5044190;28;20444;-58
2021/07/05 10:25:54;;;;;;;2.73;2.10;;;20.30;99.90;;;;;;5064835;28;20192;-58
2021/07/05 10:28:20;;;;;;;1.43;1.07;;;20.20;99.90;;;;;;5057959;28;20579;-57
2021/07/05 10:30:52;;;;;;;1.33;1.20;;;20.30;99.90;;;;;;5056799;28;20249;-57
2021/07/05 10:33:20;;;;;;;1.27;1.02;;;20.40;99.90;;;;;;5058627;28;20226;-57
2021/07/05 10:35:54;;;;;;;1.33;0.80;;;20.40;99.90;;;;;;5057679;28;20600;-57
2021/07/05 10:38:35;;;;;;;1.50;0.90;;;20.40;99.90;;;;;;5055212;28;20227;-57
2021/07/05 10:41:15;;;;;;;1.08;0.85;;;20.50;99.90;;;;;;5065351;28;20268;-55
2021/07/05 10:43:59;;;;;;;0.90;0.90;;;20.40;99.90;;;;;;5057825;28;20180;-57
2021/07/05 10:46:41;;;;;;;1.25;0.80;;;20.40;99.90;;;;;;5063717;28;20236;-56
2021/07/05 10:49:31;;;;;;;1.23;0.98;;;20.50;99.90;;;;;;5051120;28;20658;-55
2021/07/05 10:52:03;;;;;;;1.20;1.00;;;20.60;99.90;;;;;;5055206;28;20284;-55
2021/07/05 10:54:51;;;;;;;1.00;0.80;;;20.70;99.90;;;;;;5056732;28;20181;-56
2021/07/05 10:57:37;;;;;;;2.80;1.05;;;20.90;99.90;;;;;;5057225;28;20204;-56
2021/07/05 11:00:08;;;;;;;1.20;1.10;;;21.10;99.90;;;;;;5047261;28;20716;-55
2021/07/05 11:02:43;;;;;;;3.55;1.60;;;21.10;99.90;;;;;;5063070;28;20909;-56
2021/07/05 11:05:31;;;;;;;1.40;1.30;;;21.00;99.90;;;;;;5065789;28;20177;-56
2021/07/05 11:08:15;;;;;;;1.10;0.80;;;21.30;99.90;;;;;;5059729;28;20585;-56
2021/07/05 11:10:41;;;;;;;2.63;1.70;;;21.60;99.90;;;;;;5057885;28;20249;-56
2021/07/05 11:13:06;;;;;;;2.80;1.37;;;21.90;99.90;;;;;;5061429;28;20180;-57
2021/07/05 11:15:56;;;;;;;1.37;1.03;;;21.90;99.90;;;;;;5052720;28;20296;-56
2021/07/05 11:21:07;;;;;;;1.67;1.20;;;22.00;99.90;;;;;;5058479;28;20294;-58
2021/07/05 11:23:59;;;;;;;1.42;1.02;;;22.00;99.90;;;;;;5061478;28;20238;-57
2021/07/05 11:26:40;;;;;;;1.13;1.02;;;22.00;99.90;;;;;;5054399;28;20267;-56
2021/07/05 11:29:19;;;;;;;1.20;1.10;;;22.10;99.90;;;;;;5053989;28;20439;-57
2021/07/05 11:32:01;;;;;;;1.10;1.00;;;22.10;99.90;;;;;;5057939;28;20851;-56
2021/07/05 11:34:45;;;;;;;1.00;1.00;;;22.20;99.90;;;;;;5060915;28;20209;-56
2021/07/05 11:37:11;;;;;;;1.20;1.10;;;22.20;99.90;;;;;;5049613;28;20280;-56
2021/07/05 11:39:42;;;;;;;1.30;1.20;;;21.90;99.90;;;;;;5061506;28;20417;-56
2021/07/05 11:42:09;;;;;;;1.17;1.08;;;21.60;99.90;;;;;;5059240;28;20181;-57
2021/07/05 11:44:55;;;;;;;1.40;1.30;;;21.50;99.90;;;;;;5055328;28;20188;-56
2021/07/05 11:47:36;;;;;;;1.70;1.20;;;21.40;99.90;;;;;;5056147;28;20200;-56
2021/07/05 11:50:24;;;;;;;1.35;1.23;;;21.40;99.90;;;;;;5052185;28;20208;-54
2021/07/05 11:52:53;;;;;;;1.85;1.75;;;21.30;99.90;;;;;;5054574;28;20256;-56
2021/07/05 11:55:21;;;;;;;1.60;1.27;;;21.40;99.90;;;;;;5062141;28;20180;-57
2021/07/05 11:58:00;;;;;;;1.90;1.67;;;21.60;99.90;;;;;;5055618;28;20217;-58
2021/07/05 12:00:31;;;;;;;2.20;1.20;;;21.70;99.90;;;;;;5054006;28;20551;-57
2021/07/05 12:03:11;;;;;;;2.05;1.50;;;22.00;99.90;;;;;;5059156;28;20265;-59
2021/07/05 12:05:42;;;;;;;1.15;1.05;;;22.30;99.90;;;;;;5065185;28;20180;-58
2021/07/05 12:08:13;;;;;;;1.35;1.23;;;22.40;99.90;;;;;;5054119;28;20201;-57
2021/07/05 12:10:42;;;;;;;1.33;1.23;;;22.30;99.90;;;;;;5051594;28;20276;-59
2021/07/05 12:13:18;;;;;;;1.63;1.20;;;22.40;99.90;;;;;;5055896;28;20242;-57
2021/07/05 12:16:10;;;;;;;1.93;1.60;;;22.60;99.90;;;;;;5057549;28;20462;-53
2021/07/05 12:18:36;;;;;;;1.40;1.30;;;22.40;99.90;;;;;;5052497;28;20474;-57
2021/07/05 12:21:05;;;;;;;2.27;1.67;;;22.20;99.90;;;;;;5061856;28;20173;-56
2021/07/05 12:23:37;;;;;;;1.50;1.40;;;22.30;99.90;;;;;;5060229;28;20196;-56
2021/07/05 12:26:13;;;;;;;1.70;1.38;;;22.30;99.90;;;;;;5061898;28;20185;-57
2021/07/05 12:29:08;;;;;;;2.88;1.58;;;22.30;99.90;;;;;;5061034;28;20209;-57
2021/07/05 12:31:34;;;;;;;1.20;1.10;;;22.30;99.90;;;;;;5056242;28;20181;-58
2021/07/05 12:34:02;;;;;;;1.40;1.27;;;22.30;99.90;;;;;;5056490;28;20555;-56
2021/07/05 12:36:31;;;;;;;2.38;1.20;;;22.30;99.90;;;;;;5059295;28;20204;-57
2021/07/05 12:39:04;;;;;;;1.88;1.17;;;22.50;99.90;;;;;;5050637;28;20210;-57
2021/07/05 12:41:31;;;;;;;1.65;1.25;;;22.50;99.90;;;;;;5055076;28;20181;-58
2021/07/05 12:44:10;;;;;;;1.23;1.00;;;22.50;99.90;;;;;;5054972;28;20271;-57
2021/07/05 12:46:36;;;;;;;1.37;1.27;;;22.70;99.90;;;;;;5066615;28;20580;-57
2021/07/05 12:49:02;;;;;;;1.60;1.50;;;23.00;99.90;;;;;;5057858;28;20546;-57
2021/07/05 12:51:27;;;;;;;1.77;1.20;;;23.20;99.90;;;;;;5060961;28;20935;-57
2021/07/05 12:53:53;;;;;;;2.30;1.93;;;23.40;99.90;;;;;;5056387;28;20457;-57
2021/07/05 12:56:26;;;;;;;1.20;1.10;;;23.50;99.90;;;;;;5065257;28;20262;-58
2021/07/05 12:58:57;;;;;;;2.37;1.53;;;23.70;99.90;;;;;;5067161;28;20201;-57